Wednesday, January 17, 2018, 4:48 PM EST

KOXB, Ocean City Municipal Airport

Location: Berlin, MD, United States Lat: 38.317
Local Time: 4:48 PM EST (21:48 GMT) Lon: -75.117
Time Zone: US/Eastern Elev: 13 ft

Show me the last for .
Show Decoded

2018-01-17 16:25 METAR KOXB 172125Z AUTO 32007KT 1 1/4SM -SN OVC025 M03/M06 A3025 RMK AO2 P0000
                 T10331061 =
2018-01-17 16:16 METAR KOXB 172116Z AUTO 32009KT 2 1/2SM -SN OVC029 M03/M07 A3025 RMK AO2 P0000
                 T10281067 =
2018-01-17 16:12 METAR KOXB 172112Z AUTO 32008KT 3SM -SN OVC033 M03/M06 A3026 RMK AO2 P0000
                 T10281061 =
2018-01-17 16:04 METAR KOXB 172104Z AUTO 32006KT 2 1/2SM -SN OVC033 M03/M06 A3026 RMK AO2 P0000
                 T10281056 =
2018-01-17 14:59 METAR KOXB 171959Z AUTO 33009KT 4SM -SN BR BKN031 BKN039 OVC050 M02/M04 A3024
                 RMK AO2 P0000 T10221044 =
2018-01-17 14:34 METAR KOXB 171934Z AUTO 33010KT 1 1/4SM -SN BR BKN028 OVC036 M02/M04 A3025 RMK
                 AO2 SNB1858 P0000 T10221044 =
2018-01-17 14:18 METAR KOXB 171918Z AUTO 33011G19KT 2SM -SN BKN040 OVC065 M02/M05 A3026 RMK AO2
                 SNB1858 P0000 T10171050 =
2018-01-17 13:53 METAR KOXB 171853Z AUTO 32010KT 10SM OVC065 M01/M04 A3026 RMK AO2 SLP247
                 T10111044 =
2018-01-17 12:53 METAR KOXB 171753Z AUTO 33014G18KT 10SM BKN016 OVC070 00/M03 A3026 RMK AO2
                 SLP245 T00001033 10017 20000 58021 =
2018-01-17 12:15 METAR KOXB 171715Z AUTO 34012G21KT 9SM BKN015 OVC070 01/M03 A3028 RMK AO2
                 T00061028 =
2018-01-17 12:01 METAR KOXB 171701Z AUTO 34012KT 7SM OVC014 01/M02 A3029 RMK AO2 T00061022 =
2018-01-17 11:53 METAR KOXB 171653Z AUTO 33012G19KT 7SM OVC016 01/M02 A3029 RMK AO2 SLP258
                 T00061022 =
2018-01-17 11:27 METAR KOXB 171627Z AUTO 33013G19KT 8SM OVC015 01/M02 A3031 RMK AO2 T00061022 =
2018-01-17 10:53 METAR KOXB 171553Z AUTO 33012KT 5SM BR OVC012 01/M01 A3031 RMK AO2 SLP264
                 T00061011 =
2018-01-17 09:53 METAR KOXB 171453Z AUTO 33013KT 4SM BR OVC011 01/M01 A3032 RMK AO2 SLP266
                 T00111006 53009 =
2018-01-17 08:53 METAR KOXB 171353Z AUTO 33011KT 4SM BR OVC011 02/00 A3029 RMK AO2 SLP257
                 T00170000 =
2018-01-17 08:44 METAR KOXB 171344Z AUTO 33011KT 4SM BR BKN011 OVC080 02/00 A3029 RMK AO2
                 T00170000 =
2018-01-17 07:53 METAR KOXB 171253Z AUTO 33010KT 5SM BR OVC085 02/00 A3029 RMK AO2 SLP257
                 T00170000 =
2018-01-17 07:32 METAR KOXB 171232Z AUTO 33013G18KT 6SM BR SCT015 OVC090 02/00 A3029 RMK AO2
                 T00170000 =
2018-01-17 07:04 METAR KOXB 171204Z AUTO 33010KT 8SM OVC015 02/01 A3029 RMK AO2 T00170006 =
2018-01-17 06:53 METAR KOXB 171153Z AUTO 32010KT 8SM OVC014 02/01 A3029 RMK AO2 SLP257 T00170006
                 10033 20017 53009 =
2018-01-17 06:13 METAR KOXB 171113Z AUTO 31008KT 9SM BKN014 OVC095 02/01 A3028 RMK AO2 T00220011
                 =
2018-01-17 05:53 METAR KOXB 171053Z AUTO 31007KT 10SM OVC100 02/01 A3028 RMK AO2 SLP251 T00220011
                 =
2018-01-17 04:53 METAR KOXB 170953Z AUTO 33005KT 8SM OVC090 02/02 A3026 RMK AO2 SLP246 T00220022
                 =
2018-01-17 04:01 METAR KOXB 170901Z AUTO 32006KT 6SM BR SCT006 SCT120 02/02 A3026 RMK AO2
                 T00220022 =
2018-01-17 03:53 METAR KOXB 170853Z AUTO 33006KT 6SM BR BKN006 BKN120 02/02 A3026 RMK AO2 SLP248
                 T00220022 55000 =
2018-01-17 03:28 METAR KOXB 170828Z AUTO 31006KT 6SM BR OVC006 02/02 A3026 RMK AO2 T00220022 =
2018-01-17 03:09 METAR KOXB 170809Z AUTO 32005KT 5SM BR OVC004 03/03 A3026 RMK AO2 CIG 002V007
                 T00280028 =
2018-01-17 02:53 METAR KOXB 170753Z AUTO 32006KT 4SM BR OVC002 03/03 A3026 RMK AO2 SLP245
                 T00280028 =
2018-01-17 02:49 METAR KOXB 170749Z AUTO 32006KT 3SM BR OVC002 03/03 A3025 RMK AO2 =
2018-01-17 02:30 METAR KOXB 170730Z AUTO 31005KT 2 1/2SM BR OVC002 03/03 A3026 RMK AO2 T00280028
                 =
2018-01-17 01:53 METAR KOXB 170653Z AUTO 30004KT 1 1/2SM BR OVC002 03/03 A3026 RMK AO2 SLP248
                 T00280028 =
2018-01-17 01:50 METAR KOXB 170650Z AUTO 30005KT 1 1/4SM BR OVC002 03/03 A3027 RMK AO2 =
2018-01-17 00:53 METAR KOXB 170553Z AUTO 31006KT 1/2SM FG VV002 03/03 A3028 RMK AO2 SLP254
                 T00330033 10056 20033 58010 =
2018-01-17 00:12 METAR KOXB 170512Z AUTO 31005KT 1/2SM FG OVC003 03/03 A3029 RMK AO2 T00330033 =
2018-01-17 00:05 METAR KOXB 170505Z AUTO 31005KT 3/4SM BR OVC004 04/04 A3029 RMK AO2 T00390039 =
2018-01-16 23:53 METAR KOXB 170453Z AUTO 31004KT 2 1/2SM BR OVC004 04/04 A3030 RMK AO2 SLP259
                 T00390039 400781028 =
2018-01-16 23:43 METAR KOXB 170443Z AUTO 33005KT 2 1/2SM BR OVC004 04/04 A3029 RMK AO2 T00390039
                 =
2018-01-16 23:25 METAR KOXB 170425Z AUTO 30004KT 6SM BR OVC004 04/04 A3030 RMK AO2 T00390039 =
2018-01-16 22:53 METAR KOXB 170353Z AUTO 30005KT 10SM OVC003 04/04 A3031 RMK AO2 SLP262 T00440039
                 =
2018-01-16 22:26 METAR KOXB 170326Z AUTO 00000KT 10SM OVC003 05/04 A3031 RMK AO2 T00500044 =
2018-01-16 21:53 METAR KOXB 170253Z AUTO 00000KT 10SM OVC004 06/04 A3031 RMK AO2 SLP264 T00560044
                 58015 =
2018-01-16 21:41 METAR KOXB 170241Z AUTO 00000KT 10SM OVC004 05/04 A3031 RMK AO2 T00500044 =
2018-01-16 20:53 METAR KOXB 170153Z AUTO 34003KT 10SM OVC008 05/04 A3033 RMK AO2 SLP269 T00500044
                 =
2018-01-16 20:06 METAR KOXB 170106Z AUTO 01003KT 10SM OVC009 05/04 A3034 RMK AO2 T00500039 =
2018-01-16 19:53 METAR KOXB 170053Z AUTO 01003KT 10SM OVC010 05/03 A3034 RMK AO2 SLP273 T00500033
                 =
2018-01-16 18:53 METAR KOXB 162353Z AUTO 35005KT 10SM OVC011 05/04 A3035 RMK AO2 SLP278 T00500039
                 10067 20050 55000 =
2018-01-16 17:53 METAR KOXB 162253Z AUTO 32004KT 10SM OVC011 05/03 A3035 RMK AO2 SLP278 T00500033
                 =
2018-01-16 16:53 METAR KOXB 162153Z AUTO 36006KT 10SM OVC012 05/03 A3035 RMK AO2 SLP276 T00500033
                 =

Support USWX by starting your Amazon purchase here.